sensor_id;sensor_type;location;lat;lon;timestamp;temperature;humidity
35373;DHT22;21476;51.652;7.852;2022-08-19T00:01:41;17.30;99.90
35373;DHT22;21476;51.652;7.852;2022-08-19T00:04:09;17.20;99.90
35373;DHT22;21476;51.652;7.852;2022-08-19T00:06:39;17.10;99.90
35373;DHT22;21476;51.652;7.852;2022-08-19T00:09:07;17.20;99.90
35373;DHT22;21476;51.652;7.852;2022-08-19T00:11:33;17.20;99.90
35373;DHT22;21476;51.652;7.852;2022-08-19T00:14:00;17.20;99.90
35373;DHT22;21476;51.652;7.852;2022-08-19T00:16:26;17.10;99.90
35373;DHT22;21476;51.652;7.852;2022-08-19T00:18:51;17.10;99.90
35373;DHT22;21476;51.652;7.852;2022-08-19T00:21:17;17.10;99.90
35373;DHT22;21476;51.652;7.852;2022-08-19T00:23:43;17.00;99.90
35373;DHT22;21476;51.652;7.852;2022-08-19T00:26:10;17.00;99.90
35373;DHT22;21476;51.652;7.852;2022-08-19T00:28:35;17.00;99.90
35373;DHT22;21476;51.652;7.852;2022-08-19T00:31:05;17.00;99.90
35373;DHT22;21476;51.652;7.852;2022-08-19T00:33:32;17.00;99.90
35373;DHT22;21476;51.652;7.852;2022-08-19T00:35:59;17.00;99.90
35373;DHT22;21476;51.652;7.852;2022-08-19T00:38:26;16.90;99.90
35373;DHT22;21476;51.652;7.852;2022-08-19T00:40:52;16.90;99.90
35373;DHT22;21476;51.652;7.852;2022-08-19T00:43:23;16.90;99.90
35373;DHT22;21476;51.652;7.852;2022-08-19T00:45:51;16.80;99.90
35373;DHT22;21476;51.652;7.852;2022-08-19T00:48:18;16.70;99.90
35373;DHT22;21476;51.652;7.852;2022-08-19T00:50:45;16.70;99.90
35373;DHT22;21476;51.652;7.852;2022-08-19T00:53:12;16.70;99.90
35373;DHT22;21476;51.652;7.852;2022-08-19T00:55:40;16.70;99.90
35373;DHT22;21476;51.652;7.852;2022-08-19T00:58:09;16.70;99.90
35373;DHT22;21476;51.652;7.852;2022-08-19T01:00:36;16.70;99.90
35373;DHT22;21476;51.652;7.852;2022-08-19T01:03:07;16.70;99.90
35373;DHT22;21476;51.652;7.852;2022-08-19T01:05:34;16.70;99.90
35373;DHT22;21476;51.652;7.852;2022-08-19T01:08:02;16.70;99.90
35373;DHT22;21476;51.652;7.852;2022-08-19T01:10:31;16.60;99.90
35373;DHT22;21476;51.652;7.852;2022-08-19T01:12:59;16.50;99.90
35373;DHT22;21476;51.652;7.852;2022-08-19T01:15:30;16.50;99.90
35373;DHT22;21476;51.652;7.852;2022-08-19T01:17:59;16.40;99.90
35373;DHT22;21476;51.652;7.852;2022-08-19T01:20:25;16.40;99.90
35373;DHT22;21476;51.652;7.852;2022-08-19T01:22:57;16.40;99.90
35373;DHT22;21476;51.652;7.852;2022-08-19T01:25:46;16.40;99.90
35373;DHT22;21476;51.652;7.852;2022-08-19T01:28:21;16.30;99.90
35373;DHT22;21476;51.652;7.852;2022-08-19T01:30:47;16.30;99.90
35373;DHT22;21476;51.652;7.852;2022-08-19T01:33:14;16.30;99.90
35373;DHT22;21476;51.652;7.852;2022-08-19T01:35:40;16.30;99.90
35373;DHT22;21476;51.652;7.852;2022-08-19T01:38:09;16.30;99.90
35373;DHT22;21476;51.652;7.852;2022-08-19T01:40:39;16.40;99.90
35373;DHT22;21476;51.652;7.852;2022-08-19T01:43:05;16.30;99.90
35373;DHT22;21476;51.652;7.852;2022-08-19T01:45:33;16.40;99.90
35373;DHT22;21476;51.652;7.852;2022-08-19T01:48:00;16.30;99.90
35373;DHT22;21476;51.652;7.852;2022-08-19T01:50:26;16.40;99.90
35373;DHT22;21476;51.652;7.852;2022-08-19T01:52:53;16.30;99.90
35373;DHT22;21476;51.652;7.852;2022-08-19T01:55:20;16.30;99.90
35373;DHT22;21476;51.652;7.852;2022-08-19T01:57:52;16.30;99.90
35373;DHT22;21476;51.652;7.852;2022-08-19T02:00:20;16.20;99.90
35373;DHT22;21476;51.652;7.852;2022-08-19T02:02:47;16.30;99.90
35373;DHT22;21476;51.652;7.852;2022-08-19T02:05:13;16.30;99.90
35373;DHT22;21476;51.652;7.852;2022-08-19T02:07:40;16.30;99.90
35373;DHT22;21476;51.652;7.852;2022-08-19T02:10:09;16.40;99.90
35373;DHT22;21476;51.652;7.852;2022-08-19T02:12:35;16.40;99.90
35373;DHT22;21476;51.652;7.852;2022-08-19T02:15:02;16.30;99.90
35373;DHT22;21476;51.652;7.852;2022-08-19T02:17:29;16.30;99.90
35373;DHT22;21476;51.652;7.852;2022-08-19T02:19:58;16.10;99.90
35373;DHT22;21476;51.652;7.852;2022-08-19T02:22:24;16.20;99.90
35373;DHT22;21476;51.652;7.852;2022-08-19T02:24:52;16.10;99.90
35373;DHT22;21476;51.652;7.852;2022-08-19T02:27:17;16.10;99.90
35373;DHT22;21476;51.652;7.852;2022-08-19T02:29:46;16.10;99.90
35373;DHT22;21476;51.652;7.852;2022-08-19T02:32:12;16.10;99.90
35373;DHT22;21476;51.652;7.852;2022-08-19T02:34:39;16.00;99.90
35373;DHT22;21476;51.652;7.852;2022-08-19T02:37:04;15.90;99.90
35373;DHT22;21476;51.652;7.852;2022-08-19T02:39:30;15.90;99.90
35373;DHT22;21476;51.652;7.852;2022-08-19T02:41:56;15.90;99.90
35373;DHT22;21476;51.652;7.852;2022-08-19T02:44:23;15.90;99.90
35373;DHT22;21476;51.652;7.852;2022-08-19T02:46:49;15.80;99.90
35373;DHT22;21476;51.652;7.852;2022-08-19T02:49:17;15.80;99.90
35373;DHT22;21476;51.652;7.852;2022-08-19T02:51:45;15.90;99.90
35373;DHT22;21476;51.652;7.852;2022-08-19T02:54:12;15.90;99.90
35373;DHT22;21476;51.652;7.852;2022-08-19T02:56:39;15.90;99.90
35373;DHT22;21476;51.652;7.852;2022-08-19T02:59:06;15.90;99.90
35373;DHT22;21476;51.652;7.852;2022-08-19T03:01:35;15.90;99.90
35373;DHT22;21476;51.652;7.852;2022-08-19T03:04:03;15.90;99.90
35373;DHT22;21476;51.652;7.852;2022-08-19T03:06:30;15.90;99.90
35373;DHT22;21476;51.652;7.852;2022-08-19T03:08:56;15.90;99.90
35373;DHT22;21476;51.652;7.852;2022-08-19T03:11:28;16.00;99.90
35373;DHT22;21476;51.652;7.852;2022-08-19T03:13:55;15.90;99.90
35373;DHT22;21476;51.652;7.852;2022-08-19T03:16:24;15.90;99.90
35373;DHT22;21476;51.652;7.852;2022-08-19T03:18:51;15.90;99.90
35373;DHT22;21476;51.652;7.852;2022-08-19T03:21:21;16.00;99.90
35373;DHT22;21476;51.652;7.852;2022-08-19T03:23:47;16.10;99.90
35373;DHT22;21476;51.652;7.852;2022-08-19T03:26:13;16.10;99.90
35373;DHT22;21476;51.652;7.852;2022-08-19T03:28:45;16.10;99.90
35373;DHT22;21476;51.652;7.852;2022-08-19T03:31:17;16.20;99.90
35373;DHT22;21476;51.652;7.852;2022-08-19T03:33:44;16.10;99.90
35373;DHT22;21476;51.652;7.852;2022-08-19T03:38:44;16.10;99.90
35373;DHT22;21476;51.652;7.852;2022-08-19T03:41:13;16.00;99.90
35373;DHT22;21476;51.652;7.852;2022-08-19T03:43:41;16.00;99.90
35373;DHT22;21476;51.652;7.852;2022-08-19T03:46:10;15.90;99.90
35373;DHT22;21476;51.652;7.852;2022-08-19T03:48:37;15.90;99.90
35373;DHT22;21476;51.652;7.852;2022-08-19T03:51:04;15.90;99.90
35373;DHT22;21476;51.652;7.852;2022-08-19T03:53:31;15.90;99.90
35373;DHT22;21476;51.652;7.852;2022-08-19T03:55:58;15.90;99.90
35373;DHT22;21476;51.652;7.852;2022-08-19T03:58:28;15.80;99.90
35373;DHT22;21476;51.652;7.852;2022-08-19T04:00:57;15.70;99.90
35373;DHT22;21476;51.652;7.852;2022-08-19T04:03:24;15.70;99.90
35373;DHT22;21476;51.652;7.852;2022-08-19T04:05:50;15.70;99.90
35373;DHT22;21476;51.652;7.852;2022-08-19T04:08:16;15.60;99.90
35373;DHT22;21476;51.652;7.852;2022-08-19T04:10:46;15.50;99.90
35373;DHT22;21476;51.652;7.852;2022-08-19T04:13:12;15.50;99.90
35373;DHT22;21476;51.652;7.852;2022-08-19T04:16:32;15.60;99.90
35373;DHT22;21476;51.652;7.852;2022-08-19T04:18:45;15.50;99.90
35373;DHT22;21476;51.652;7.852;2022-08-19T04:21:20;15.40;99.90
35373;DHT22;21476;51.652;7.852;2022-08-19T04:23:47;15.40;99.90
35373;DHT22;21476;51.652;7.852;2022-08-19T04:26:22;15.40;99.90
35373;DHT22;21476;51.652;7.852;2022-08-19T04:28:48;15.40;99.90
35373;DHT22;21476;51.652;7.852;2022-08-19T04:31:23;15.40;99.90
35373;DHT22;21476;51.652;7.852;2022-08-19T04:33:58;15.40;99.90
35373;DHT22;21476;51.652;7.852;2022-08-19T04:36:29;15.40;99.90
35373;DHT22;21476;51.652;7.852;2022-08-19T04:39:00;15.50;99.90
35373;DHT22;21476;51.652;7.852;2022-08-19T04:41:29;15.40;99.90
35373;DHT22;21476;51.652;7.852;2022-08-19T04:44:14;15.40;99.90
35373;DHT22;21476;51.652;7.852;2022-08-19T04:46:44;15.50;99.90
35373;DHT22;21476;51.652;7.852;2022-08-19T04:49:11;15.60;99.90
35373;DHT22;21476;51.652;7.852;2022-08-19T04:51:42;15.60;99.90
35373;DHT22;21476;51.652;7.852;2022-08-19T04:54:11;15.70;99.90
35373;DHT22;21476;51.652;7.852;2022-08-19T04:56:39;15.80;99.90
35373;DHT22;21476;51.652;7.852;2022-08-19T04:59:05;15.80;99.90
35373;DHT22;21476;51.652;7.852;2022-08-19T05:01:32;15.80;99.90
35373;DHT22;21476;51.652;7.852;2022-08-19T05:03:59;15.80;99.90
35373;DHT22;21476;51.652;7.852;2022-08-19T05:06:26;15.80;99.90
35373;DHT22;21476;51.652;7.852;2022-08-19T05:08:52;15.80;99.90
35373;DHT22;21476;51.652;7.852;2022-08-19T05:11:23;16.00;99.90
35373;DHT22;21476;51.652;7.852;2022-08-19T05:13:50;16.00;99.90
35373;DHT22;21476;51.652;7.852;2022-08-19T05:16:19;16.20;99.90
35373;DHT22;21476;51.652;7.852;2022-08-19T05:18:45;16.30;99.90
35373;DHT22;21476;51.652;7.852;2022-08-19T05:21:30;16.40;99.90
35373;DHT22;21476;51.652;7.852;2022-08-19T05:24:15;16.40;99.90
35373;DHT22;21476;51.652;7.852;2022-08-19T05:26:43;16.60;99.90
35373;DHT22;21476;51.652;7.852;2022-08-19T05:29:13;16.70;99.90
35373;DHT22;21476;51.652;7.852;2022-08-19T05:31:39;16.90;99.90
35373;DHT22;21476;51.652;7.852;2022-08-19T05:34:05;17.20;99.90
35373;DHT22;21476;51.652;7.852;2022-08-19T05:36:43;17.20;99.90
35373;DHT22;21476;51.652;7.852;2022-08-19T05:39:17;17.40;99.90
35373;DHT22;21476;51.652;7.852;2022-08-19T05:41:49;17.50;99.90
35373;DHT22;21476;51.652;7.852;2022-08-19T05:44:16;17.70;99.90
35373;DHT22;21476;51.652;7.852;2022-08-19T05:46:44;17.80;99.90
35373;DHT22;21476;51.652;7.852;2022-08-19T05:49:13;18.00;99.90
35373;DHT22;21476;51.652;7.852;2022-08-19T05:51:39;18.30;99.90
35373;DHT22;21476;51.652;7.852;2022-08-19T05:54:08;19.00;99.90
35373;DHT22;21476;51.652;7.852;2022-08-19T05:56:36;19.70;99.90
35373;DHT22;21476;51.652;7.852;2022-08-19T05:59:04;20.80;99.90
35373;DHT22;21476;51.652;7.852;2022-08-19T06:01:35;21.80;99.90
35373;DHT22;21476;51.652;7.852;2022-08-19T06:04:01;22.50;99.90
35373;DHT22;21476;51.652;7.852;2022-08-19T06:06:28;23.50;99.90
35373;DHT22;21476;51.652;7.852;2022-08-19T06:08:53;24.20;99.90
35373;DHT22;21476;51.652;7.852;2022-08-19T06:11:38;25.10;99.90
35373;DHT22;21476;51.652;7.852;2022-08-19T06:14:08;25.20;99.90
35373;DHT22;21476;51.652;7.852;2022-08-19T06:16:35;25.50;99.90
35373;DHT22;21476;51.652;7.852;2022-08-19T06:19:05;25.30;99.90
35373;DHT22;21476;51.652;7.852;2022-08-19T06:21:32;25.00;99.90
35373;DHT22;21476;51.652;7.852;2022-08-19T06:23:59;25.30;99.90
35373;DHT22;21476;51.652;7.852;2022-08-19T06:26:25;25.20;99.90
35373;DHT22;21476;51.652;7.852;2022-08-19T06:28:51;25.30;99.90
35373;DHT22;21476;51.652;7.852;2022-08-19T06:31:20;25.40;99.90
35373;DHT22;21476;51.652;7.852;2022-08-19T06:33:47;25.40;99.90
35373;DHT22;21476;51.652;7.852;2022-08-19T06:36:27;25.60;99.90
35373;DHT22;21476;51.652;7.852;2022-08-19T06:38:55;25.90;99.90
35373;DHT22;21476;51.652;7.852;2022-08-19T06:41:24;27.00;99.90
35373;DHT22;21476;51.652;7.852;2022-08-19T06:43:49;27.90;99.90
35373;DHT22;21476;51.652;7.852;2022-08-19T06:46:16;27.80;99.90
35373;DHT22;21476;51.652;7.852;2022-08-19T06:48:43;27.40;99.90
35373;DHT22;21476;51.652;7.852;2022-08-19T06:51:10;26.30;99.90
35373;DHT22;21476;51.652;7.852;2022-08-19T06:53:35;25.80;99.90
35373;DHT22;21476;51.652;7.852;2022-08-19T06:56:01;25.60;99.90
35373;DHT22;21476;51.652;7.852;2022-08-19T06:58:29;25.10;99.90
35373;DHT22;21476;51.652;7.852;2022-08-19T07:01:02;25.10;99.90
35373;DHT22;21476;51.652;7.852;2022-08-19T07:03:33;24.80;99.90
35373;DHT22;21476;51.652;7.852;2022-08-19T07:06:06;24.90;99.90
35373;DHT22;21476;51.652;7.852;2022-08-19T07:08:34;25.20;99.90
35373;DHT22;21476;51.652;7.852;2022-08-19T07:11:00;25.20;99.90
35373;DHT22;21476;51.652;7.852;2022-08-19T07:13:26;25.00;99.90
35373;DHT22;21476;51.652;7.852;2022-08-19T07:15:52;24.60;99.90
35373;DHT22;21476;51.652;7.852;2022-08-19T07:18:19;24.40;99.90
35373;DHT22;21476;51.652;7.852;2022-08-19T07:20:45;24.30;99.90
35373;DHT22;21476;51.652;7.852;2022-08-19T07:23:12;24.30;99.90
35373;DHT22;21476;51.652;7.852;2022-08-19T07:25:38;24.30;99.90
35373;DHT22;21476;51.652;7.852;2022-08-19T07:28:04;24.50;99.90
35373;DHT22;21476;51.652;7.852;2022-08-19T07:30:31;24.70;99.90
35373;DHT22;21476;51.652;7.852;2022-08-19T07:33:00;24.60;99.90
35373;DHT22;21476;51.652;7.852;2022-08-19T07:35:25;24.50;99.90
35373;DHT22;21476;51.652;7.852;2022-08-19T07:37:51;24.50;99.90
35373;DHT22;21476;51.652;7.852;2022-08-19T07:40:18;24.50;99.90
35373;DHT22;21476;51.652;7.852;2022-08-19T07:42:43;24.40;99.90
35373;DHT22;21476;51.652;7.852;2022-08-19T07:45:09;24.50;99.90
35373;DHT22;21476;51.652;7.852;2022-08-19T07:47:35;24.70;99.90
35373;DHT22;21476;51.652;7.852;2022-08-19T07:50:01;24.80;99.90
35373;DHT22;21476;51.652;7.852;2022-08-19T07:52:31;25.00;99.90
35373;DHT22;21476;51.652;7.852;2022-08-19T07:54:59;25.40;99.90
35373;DHT22;21476;51.652;7.852;2022-08-19T07:57:28;25.60;99.90
35373;DHT22;21476;51.652;7.852;2022-08-19T08:00:03;25.80;99.90
35373;DHT22;21476;51.652;7.852;2022-08-19T08:02:30;26.20;99.90
35373;DHT22;21476;51.652;7.852;2022-08-19T08:04:59;26.50;99.90
35373;DHT22;21476;51.652;7.852;2022-08-19T08:07:43;26.40;99.90
35373;DHT22;21476;51.652;7.852;2022-08-19T08:10:27;26.40;99.90
35373;DHT22;21476;51.652;7.852;2022-08-19T08:12:53;26.80;99.90
35373;DHT22;21476;51.652;7.852;2022-08-19T08:15:19;27.40;99.90
35373;DHT22;21476;51.652;7.852;2022-08-19T08:17:45;27.70;99.90
35373;DHT22;21476;51.652;7.852;2022-08-19T08:20:11;27.80;99.90
35373;DHT22;21476;51.652;7.852;2022-08-19T08:22:37;27.90;99.90
35373;DHT22;21476;51.652;7.852;2022-08-19T08:25:28;27.90;99.90
35373;DHT22;21476;51.652;7.852;2022-08-19T08:27:55;28.00;99.90
35373;DHT22;21476;51.652;7.852;2022-08-19T08:30:24;28.20;99.90
35373;DHT22;21476;51.652;7.852;2022-08-19T08:32:51;28.20;99.90
35373;DHT22;21476;51.652;7.852;2022-08-19T08:35:20;28.10;99.90
35373;DHT22;21476;51.652;7.852;2022-08-19T08:37:48;28.20;99.90
35373;DHT22;21476;51.652;7.852;2022-08-19T08:40:47;28.40;99.90
35373;DHT22;21476;51.652;7.852;2022-08-19T08:46:13;28.50;99.90
35373;DHT22;21476;51.652;7.852;2022-08-19T08:51:11;28.40;99.90
35373;DHT22;21476;51.652;7.852;2022-08-19T08:53:40;28.20;99.90
35373;DHT22;21476;51.652;7.852;2022-08-19T08:56:08;27.80;99.90
35373;DHT22;21476;51.652;7.852;2022-08-19T08:58:59;27.50;99.90
35373;DHT22;21476;51.652;7.852;2022-08-19T09:01:26;27.40;99.90
35373;DHT22;21476;51.652;7.852;2022-08-19T09:03:53;27.30;99.90
35373;DHT22;21476;51.652;7.852;2022-08-19T09:09:04;27.60;99.90
35373;DHT22;21476;51.652;7.852;2022-08-19T09:12:01;27.60;99.90
35373;DHT22;21476;51.652;7.852;2022-08-19T09:17:09;27.70;99.90
35373;DHT22;21476;51.652;7.852;2022-08-19T09:19:46;28.00;99.90
35373;DHT22;21476;51.652;7.852;2022-08-19T09:22:13;27.80;99.90
35373;DHT22;21476;51.652;7.852;2022-08-19T09:24:39;27.90;99.90
35373;DHT22;21476;51.652;7.852;2022-08-19T09:27:06;27.90;99.90
35373;DHT22;21476;51.652;7.852;2022-08-19T09:29:31;27.90;99.90
35373;DHT22;21476;51.652;7.852;2022-08-19T09:31:57;27.60;99.90
35373;DHT22;21476;51.652;7.852;2022-08-19T09:34:23;27.30;99.90
35373;DHT22;21476;51.652;7.852;2022-08-19T09:36:49;27.40;99.90
35373;DHT22;21476;51.652;7.852;2022-08-19T09:39:18;27.30;99.90
35373;DHT22;21476;51.652;7.852;2022-08-19T09:41:44;26.90;99.90
35373;DHT22;21476;51.652;7.852;2022-08-19T09:44:09;26.80;99.90
35373;DHT22;21476;51.652;7.852;2022-08-19T09:46:37;27.20;99.90
35373;DHT22;21476;51.652;7.852;2022-08-19T09:49:02;27.50;99.90
35373;DHT22;21476;51.652;7.852;2022-08-19T09:51:30;27.90;99.90
35373;DHT22;21476;51.652;7.852;2022-08-19T09:54:00;28.10;99.90
35373;DHT22;21476;51.652;7.852;2022-08-19T09:56:25;28.10;99.90
35373;DHT22;21476;51.652;7.852;2022-08-19T09:58:51;28.00;99.90
35373;DHT22;21476;51.652;7.852;2022-08-19T10:01:23;28.10;99.90
35373;DHT22;21476;51.652;7.852;2022-08-19T10:03:51;28.00;99.90
35373;DHT22;21476;51.652;7.852;2022-08-19T10:06:19;28.20;99.90
35373;DHT22;21476;51.652;7.852;2022-08-19T10:08:46;28.50;99.90
35373;DHT22;21476;51.652;7.852;2022-08-19T10:11:12;28.60;99.90
35373;DHT22;21476;51.652;7.852;2022-08-19T10:13:48;28.50;99.90
35373;DHT22;21476;51.652;7.852;2022-08-19T10:16:27;28.50;99.90
35373;DHT22;21476;51.652;7.852;2022-08-19T10:18:54;28.20;99.90
35373;DHT22;21476;51.652;7.852;2022-08-19T10:21:33;28.10;99.90
35373;DHT22;21476;51.652;7.852;2022-08-19T10:24:01;27.90;99.90
35373;DHT22;21476;51.652;7.852;2022-08-19T10:26:40;27.90;99.90
35373;DHT22;21476;51.652;7.852;2022-08-19T10:29:15;28.10;99.90
35373;DHT22;21476;51.652;7.852;2022-08-19T10:31:41;28.30;99.90
35373;DHT22;21476;51.652;7.852;2022-08-19T10:34:07;28.60;99.90
35373;DHT22;21476;51.652;7.852;2022-08-19T10:36:36;28.70;99.90
35373;DHT22;21476;51.652;7.852;2022-08-19T10:39:07;28.80;99.90
35373;DHT22;21476;51.652;7.852;2022-08-19T10:41:36;28.80;99.90
35373;DHT22;21476;51.652;7.852;2022-08-19T10:44:07;28.90;99.90
35373;DHT22;21476;51.652;7.852;2022-08-19T10:46:37;29.30;99.90
35373;DHT22;21476;51.652;7.852;2022-08-19T10:49:05;29.60;99.90
35373;DHT22;21476;51.652;7.852;2022-08-19T10:51:31;29.40;99.90
35373;DHT22;21476;51.652;7.852;2022-08-19T10:54:24;28.80;99.90
35373;DHT22;21476;51.652;7.852;2022-08-19T10:57:09;28.60;99.90
35373;DHT22;21476;51.652;7.852;2022-08-19T10:59:35;29.10;99.90
35373;DHT22;21476;51.652;7.852;2022-08-19T11:02:04;29.30;99.90
35373;DHT22;21476;51.652;7.852;2022-08-19T11:04:29;29.20;99.90
35373;DHT22;21476;51.652;7.852;2022-08-19T11:06:55;28.70;99.90
35373;DHT22;21476;51.652;7.852;2022-08-19T11:09:24;28.40;99.90
35373;DHT22;21476;51.652;7.852;2022-08-19T11:11:50;28.00;99.90
35373;DHT22;21476;51.652;7.852;2022-08-19T11:14:19;27.70;99.90
35373;DHT22;21476;51.652;7.852;2022-08-19T11:16:47;27.40;99.90
35373;DHT22;21476;51.652;7.852;2022-08-19T11:19:13;27.40;99.90
35373;DHT22;21476;51.652;7.852;2022-08-19T11:21:43;27.50;99.90
35373;DHT22;21476;51.652;7.852;2022-08-19T11:24:12;27.60;99.90
35373;DHT22;21476;51.652;7.852;2022-08-19T11:26:39;28.20;99.90
35373;DHT22;21476;51.652;7.852;2022-08-19T11:29:07;28.80;99.90
35373;DHT22;21476;51.652;7.852;2022-08-19T11:31:38;29.20;99.90
35373;DHT22;21476;51.652;7.852;2022-08-19T11:34:06;29.00;99.90
35373;DHT22;21476;51.652;7.852;2022-08-19T11:36:33;28.70;99.90
35373;DHT22;21476;51.652;7.852;2022-08-19T11:38:59;28.30;99.90
35373;DHT22;21476;51.652;7.852;2022-08-19T11:41:25;28.30;99.90
35373;DHT22;21476;51.652;7.852;2022-08-19T11:43:53;28.80;99.90
35373;DHT22;21476;51.652;7.852;2022-08-19T11:46:21;29.30;99.90
35373;DHT22;21476;51.652;7.852;2022-08-19T11:48:48;29.70;99.90
35373;DHT22;21476;51.652;7.852;2022-08-19T11:51:18;30.00;99.90
35373;DHT22;21476;51.652;7.852;2022-08-19T11:53:44;30.00;99.90
35373;DHT22;21476;51.652;7.852;2022-08-19T11:56:10;30.00;99.50
35373;DHT22;21476;51.652;7.852;2022-08-19T11:58:36;29.60;99.90
35373;DHT22;21476;51.652;7.852;2022-08-19T12:01:06;29.50;99.80
35373;DHT22;21476;51.652;7.852;2022-08-19T12:03:32;29.60;99.90
35373;DHT22;21476;51.652;7.852;2022-08-19T12:06:06;29.90;99.90
35373;DHT22;21476;51.652;7.852;2022-08-19T12:08:32;30.20;99.10
35373;DHT22;21476;51.652;7.852;2022-08-19T12:10:58;30.50;98.90
35373;DHT22;21476;51.652;7.852;2022-08-19T12:13:27;30.40;98.20
35373;DHT22;21476;51.652;7.852;2022-08-19T12:15:55;30.20;97.70
35373;DHT22;21476;51.652;7.852;2022-08-19T12:18:21;30.10;98.20
35373;DHT22;21476;51.652;7.852;2022-08-19T12:20:47;30.10;98.10
35373;DHT22;21476;51.652;7.852;2022-08-19T12:23:13;29.80;97.10
35373;DHT22;21476;51.652;7.852;2022-08-19T12:25:45;29.70;98.40
35373;DHT22;21476;51.652;7.852;2022-08-19T12:28:18;30.00;98.20
35373;DHT22;21476;51.652;7.852;2022-08-19T12:30:44;30.30;97.70
35373;DHT22;21476;51.652;7.852;2022-08-19T12:33:10;30.70;96.70
35373;DHT22;21476;51.652;7.852;2022-08-19T12:35:40;30.60;96.80
35373;DHT22;21476;51.652;7.852;2022-08-19T12:38:06;30.40;97.50
35373;DHT22;21476;51.652;7.852;2022-08-19T12:40:32;29.80;98.50
35373;DHT22;21476;51.652;7.852;2022-08-19T12:42:58;29.50;99.00
35373;DHT22;21476;51.652;7.852;2022-08-19T12:45:24;29.30;99.70
35373;DHT22;21476;51.652;7.852;2022-08-19T12:47:50;29.20;99.20
35373;DHT22;21476;51.652;7.852;2022-08-19T12:50:18;29.10;99.10
35373;DHT22;21476;51.652;7.852;2022-08-19T12:52:47;29.20;99.20
35373;DHT22;21476;51.652;7.852;2022-08-19T12:55:14;29.40;98.80
35373;DHT22;21476;51.652;7.852;2022-08-19T12:57:40;29.60;99.30
35373;DHT22;21476;51.652;7.852;2022-08-19T13:00:08;29.90;98.70
35373;DHT22;21476;51.652;7.852;2022-08-19T13:02:39;30.10;97.50
35373;DHT22;21476;51.652;7.852;2022-08-19T13:05:08;30.10;97.30
35373;DHT22;21476;51.652;7.852;2022-08-19T13:07:34;30.20;97.40
35373;DHT22;21476;51.652;7.852;2022-08-19T13:10:00;30.40;97.70
35373;DHT22;21476;51.652;7.852;2022-08-19T13:12:26;30.60;96.50
35373;DHT22;21476;51.652;7.852;2022-08-19T13:14:55;30.60;96.30
35373;DHT22;21476;51.652;7.852;2022-08-19T13:17:22;30.50;96.30
35373;DHT22;21476;51.652;7.852;2022-08-19T13:19:48;30.40;95.90
35373;DHT22;21476;51.652;7.852;2022-08-19T13:22:14;30.30;96.00
35373;DHT22;21476;51.652;7.852;2022-08-19T13:24:40;30.20;96.10
35373;DHT22;21476;51.652;7.852;2022-08-19T13:27:05;30.20;96.40
35373;DHT22;21476;51.652;7.852;2022-08-19T13:29:32;30.20;96.50
35373;DHT22;21476;51.652;7.852;2022-08-19T13:32:16;30.20;96.10
35373;DHT22;21476;51.652;7.852;2022-08-19T13:35:01;30.30;95.60
35373;DHT22;21476;51.652;7.852;2022-08-19T13:37:27;30.20;97.30
35373;DHT22;21476;51.652;7.852;2022-08-19T13:40:27;30.30;96.40
35373;DHT22;21476;51.652;7.852;2022-08-19T13:42:55;30.50;96.00
35373;DHT22;21476;51.652;7.852;2022-08-19T13:45:23;30.60;95.50
35373;DHT22;21476;51.652;7.852;2022-08-19T13:47:52;30.50;95.00
35373;DHT22;21476;51.652;7.852;2022-08-19T13:50:26;30.30;95.10
35373;DHT22;21476;51.652;7.852;2022-08-19T13:52:53;30.10;94.60
35373;DHT22;21476;51.652;7.852;2022-08-19T13:55:19;30.00;95.20
35373;DHT22;21476;51.652;7.852;2022-08-19T13:57:45;29.90;95.00
35373;DHT22;21476;51.652;7.852;2022-08-19T14:00:16;29.60;94.30
35373;DHT22;21476;51.652;7.852;2022-08-19T14:02:43;29.40;94.90
35373;DHT22;21476;51.652;7.852;2022-08-19T14:05:12;29.40;95.30
35373;DHT22;21476;51.652;7.852;2022-08-19T14:07:38;29.30;94.90
35373;DHT22;21476;51.652;7.852;2022-08-19T14:10:06;29.00;94.70
35373;DHT22;21476;51.652;7.852;2022-08-19T14:12:33;28.80;95.30
35373;DHT22;21476;51.652;7.852;2022-08-19T14:14:59;28.60;95.70
35373;DHT22;21476;51.652;7.852;2022-08-19T14:17:25;28.60;96.40
35373;DHT22;21476;51.652;7.852;2022-08-19T14:19:58;28.70;96.00
35373;DHT22;21476;51.652;7.852;2022-08-19T14:22:25;28.70;96.30
35373;DHT22;21476;51.652;7.852;2022-08-19T14:24:51;28.90;95.70
35373;DHT22;21476;51.652;7.852;2022-08-19T14:27:17;28.90;95.70
35373;DHT22;21476;51.652;7.852;2022-08-19T14:29:42;28.90;95.60
35373;DHT22;21476;51.652;7.852;2022-08-19T14:32:09;28.90;95.50
35373;DHT22;21476;51.652;7.852;2022-08-19T14:34:36;28.90;95.50
35373;DHT22;21476;51.652;7.852;2022-08-19T14:37:02;28.60;95.50
35373;DHT22;21476;51.652;7.852;2022-08-19T14:39:28;28.30;96.10
35373;DHT22;21476;51.652;7.852;2022-08-19T14:41:53;28.10;97.00
35373;DHT22;21476;51.652;7.852;2022-08-19T14:44:19;28.00;97.30
35373;DHT22;21476;51.652;7.852;2022-08-19T14:46:45;27.90;97.60
35373;DHT22;21476;51.652;7.852;2022-08-19T14:49:11;27.80;97.50
35373;DHT22;21476;51.652;7.852;2022-08-19T14:51:37;27.80;97.20
35373;DHT22;21476;51.652;7.852;2022-08-19T14:54:03;27.70;97.50
35373;DHT22;21476;51.652;7.852;2022-08-19T14:56:29;27.70;98.00
35373;DHT22;21476;51.652;7.852;2022-08-19T14:58:56;27.70;98.00
35373;DHT22;21476;51.652;7.852;2022-08-19T15:01:25;27.80;97.50
35373;DHT22;21476;51.652;7.852;2022-08-19T15:03:51;28.00;97.60
35373;DHT22;21476;51.652;7.852;2022-08-19T15:06:19;28.10;97.30
35373;DHT22;21476;51.652;7.852;2022-08-19T15:08:45;28.20;97.90
35373;DHT22;21476;51.652;7.852;2022-08-19T15:11:13;28.30;97.10
35373;DHT22;21476;51.652;7.852;2022-08-19T15:13:41;28.30;97.00
35373;DHT22;21476;51.652;7.852;2022-08-19T15:16:07;28.20;97.40
35373;DHT22;21476;51.652;7.852;2022-08-19T15:18:33;28.00;97.80
35373;DHT22;21476;51.652;7.852;2022-08-19T15:21:01;28.00;98.10
35373;DHT22;21476;51.652;7.852;2022-08-19T15:23:27;27.90;97.60
35373;DHT22;21476;51.652;7.852;2022-08-19T15:25:53;27.80;98.20
35373;DHT22;21476;51.652;7.852;2022-08-19T15:28:23;27.80;98.20
35373;DHT22;21476;51.652;7.852;2022-08-19T15:30:49;27.90;98.10
35373;DHT22;21476;51.652;7.852;2022-08-19T15:33:15;27.90;98.00
35373;DHT22;21476;51.652;7.852;2022-08-19T15:35:43;28.00;98.10
35373;DHT22;21476;51.652;7.852;2022-08-19T15:38:09;28.00;97.60
35373;DHT22;21476;51.652;7.852;2022-08-19T15:40:39;27.80;97.70
35373;DHT22;21476;51.652;7.852;2022-08-19T15:43:06;27.80;97.60
35373;DHT22;21476;51.652;7.852;2022-08-19T15:45:31;27.60;97.80
35373;DHT22;21476;51.652;7.852;2022-08-19T15:48:02;27.60;98.00
35373;DHT22;21476;51.652;7.852;2022-08-19T15:50:28;27.70;97.80
35373;DHT22;21476;51.652;7.852;2022-08-19T15:52:59;27.70;98.10